Time;durP1;ratioP1;P1;durP2;ratioP2;P2;SDS_P1;SDS_P2;PMS_P1;PMS_P2;Temp;Humidity;BMP_temperature;BMP_pressure;BME280_temperature;BME280_humidity;BME280_pressure;Samples;Min_cycle;Max_cycle;Signal;HPM_P1;HPM_P2
2022/11/28 00:02:13;;;;;;;4.90;3.60;;;;;;;;;;5014160;28;20111;-86
2022/11/28 00:04:39;;;;;;;5.20;3.33;;;;;;;;;;5013640;28;20060;-86
2022/11/28 00:07:04;;;;;;;6.20;3.40;;;;;;;;;;5027383;28;20283;-85
2022/11/28 00:09:29;;;;;;;5.38;3.60;;;;;;;;;;5024872;28;20272;-85
2022/11/28 00:11:54;;;;;;;5.40;3.57;;;;;;;;;;5012733;28;20033;-85
2022/11/28 00:14:20;;;;;;;5.83;3.00;;;;;;;;;;5025154;28;20363;-85
2022/11/28 00:16:45;;;;;;;4.05;2.90;;;;;;;;;;5050517;28;20713;-85
2022/11/28 00:19:11;;;;;;;5.30;3.70;;;;;;;;;;5050396;28;20039;-85
2022/11/28 00:21:37;;;;;;;5.68;3.97;;;;;;;;;;5050053;28;20094;-85
2022/11/28 00:24:02;;;;;;;10.57;6.72;;;;;;;;;;5032139;28;20072;-85
2022/11/28 00:26:32;;;;;;;10.98;7.70;;;;;;;;;;5032799;28;20079;-85
2022/11/28 00:28:58;;;;;;;10.40;6.93;;;;;;;;;;5049455;28;20025;-86
2022/11/28 00:31:25;;;;;;;10.50;6.40;;;;;;;;;;5048731;28;20421;-85
2022/11/28 00:33:50;;;;;;;9.65;5.95;;;;;;;;;;5030973;28;20030;-85
2022/11/28 00:36:16;;;;;;;9.43;6.22;;;;;;;;;;5031019;28;20044;-85
2022/11/28 00:38:41;;;;;;;9.52;6.72;;;;;;;;;;5048970;28;20514;-85
2022/11/28 00:41:12;;;;;;;9.63;6.93;;;;;;;;;;5027188;28;20112;-86
2022/11/28 00:43:37;;;;;;;11.38;8.20;;;;;;;;;;5013015;28;20033;-85
2022/11/28 00:46:03;;;;;;;10.77;7.67;;;;;;;;;;5031388;28;20029;-85
2022/11/28 00:48:28;;;;;;;11.87;8.00;;;;;;;;;;5028672;28;20087;-85
2022/11/28 00:50:54;;;;;;;12.23;8.10;;;;;;;;;;5032814;28;20337;-85
2022/11/28 00:53:19;;;;;;;12.75;9.25;;;;;;;;;;5033674;28;20067;-85
2022/11/28 00:55:44;;;;;;;13.20;9.47;;;;;;;;;;5033594;28;20529;-85
2022/11/28 00:58:09;;;;;;;12.10;8.45;;;;;;;;;;5031737;28;20800;-85
2022/11/28 01:00:35;;;;;;;11.27;8.13;;;;;;;;;;5032322;28;20044;-85
2022/11/28 01:03:00;;;;;;;9.10;6.63;;;;;;;;;;5031610;28;20040;-85
2022/11/28 01:05:26;;;;;;;9.10;6.30;;;;;;;;;;5049350;28;20037;-85
2022/11/28 01:07:51;;;;;;;7.00;5.17;;;;;;;;;;5031551;28;20534;-85
2022/11/28 01:10:16;;;;;;;8.70;6.10;;;;;;;;;;5048889;28;20609;-85
2022/11/28 01:12:41;;;;;;;9.32;6.47;;;;;;;;;;5031326;28;20367;-85
2022/11/28 01:15:07;;;;;;;10.17;7.43;;;;;;;;;;5031558;28;20040;-85
2022/11/28 01:17:33;;;;;;;10.10;7.57;;;;;;;;;;5031605;28;20075;-85
2022/11/28 01:19:58;;;;;;;10.00;6.80;;;;;;;;;;5031894;28;20126;-85
2022/11/28 01:22:23;;;;;;;11.67;7.23;;;;;;;;;;5036457;28;20263;-86
2022/11/28 01:24:48;;;;;;;8.00;6.10;;;;;;;;;;5065559;28;20568;-85
2022/11/28 01:27:13;;;;;;;8.83;6.50;;;;;;;;;;5030480;28;20052;-85
2022/11/28 01:29:39;;;;;;;8.03;5.50;;;;;;;;;;5030037;28;20280;-85
2022/11/28 01:32:04;;;;;;;7.90;5.10;;;;;;;;;;5050878;28;20132;-85
2022/11/28 01:34:29;;;;;;;7.95;5.70;;;;;;;;;;5031571;28;20314;-85
2022/11/28 01:36:54;;;;;;;8.37;5.90;;;;;;;;;;5030972;28;20033;-86
2022/11/28 01:39:19;;;;;;;10.60;7.07;;;;;;;;;;5032119;28;20521;-85
2022/11/28 01:41:45;;;;;;;9.53;6.67;;;;;;;;;;5023690;28;20124;-85
2022/11/28 01:44:13;;;;;;;10.23;7.03;;;;;;;;;;5047759;28;20094;-85
2022/11/28 01:46:38;;;;;;;9.90;6.65;;;;;;;;;;5051074;28;20273;-85
2022/11/28 01:49:13;;;;;;;9.25;6.45;;;;;;;;;;5033684;28;20036;-85
2022/11/28 01:51:41;;;;;;;7.15;5.40;;;;;;;;;;5031049;28;20033;-85
2022/11/28 01:54:06;;;;;;;8.07;5.63;;;;;;;;;;5046959;28;20550;-85
2022/11/28 01:56:37;;;;;;;8.32;5.63;;;;;;;;;;5027485;28;20068;-86
2022/11/28 01:59:05;;;;;;;10.27;7.03;;;;;;;;;;5032253;28;20060;-85
2022/11/28 02:01:31;;;;;;;8.90;6.22;;;;;;;;;;5031292;28;20336;-86
2022/11/28 02:03:57;;;;;;;6.80;5.22;;;;;;;;;;5031456;28;20041;-86
2022/11/28 02:06:23;;;;;;;9.52;6.43;;;;;;;;;;5029212;28;20037;-85
2022/11/28 02:08:49;;;;;;;8.45;5.80;;;;;;;;;;5033007;28;20029;-85
2022/11/28 02:11:33;;;;;;;8.68;5.50;;;;;;;;;;5032356;28;20044;-85
2022/11/28 02:13:58;;;;;;;7.88;5.60;;;;;;;;;;5049135;28;20574;-85
2022/11/28 02:16:41;;;;;;;7.30;5.20;;;;;;;;;;5045877;28;20128;-85
2022/11/28 02:19:16;;;;;;;8.70;5.25;;;;;;;;;;5023817;28;20057;-85
2022/11/28 02:21:44;;;;;;;10.13;7.38;;;;;;;;;;5030624;28;20060;-86
2022/11/28 02:24:28;;;;;;;11.50;8.20;;;;;;;;;;5045740;28;20087;-85
2022/11/28 02:27:12;;;;;;;11.93;8.23;;;;;;;;;;5027699;28;20033;-85
2022/11/28 02:29:43;;;;;;;11.20;7.78;;;;;;;;;;5030129;28;20029;-85
2022/11/28 02:32:09;;;;;;;11.82;7.60;;;;;;;;;;5047629;28;20127;-85
2022/11/28 02:34:49;;;;;;;10.30;6.70;;;;;;;;;;5030846;28;20183;-85
2022/11/28 02:37:19;;;;;;;11.57;8.13;;;;;;;;;;5031062;28;20287;-85
2022/11/28 02:39:55;;;;;;;12.20;7.70;;;;;;;;;;5047707;28;20064;-85
2022/11/28 02:42:29;;;;;;;9.13;6.95;;;;;;;;;;5036584;28;20128;-85
2022/11/28 02:45:03;;;;;;;9.15;6.75;;;;;;;;;;5050451;28;20041;-86
2022/11/28 02:47:33;;;;;;;10.52;5.82;;;;;;;;;;5032752;28;20044;-85
2022/11/28 02:50:21;;;;;;;7.60;5.25;;;;;;;;;;5026441;28;20025;-85
2022/11/28 02:52:51;;;;;;;7.53;5.00;;;;;;;;;;5030185;28;20037;-85
2022/11/28 02:55:16;;;;;;;8.88;5.50;;;;;;;;;;5028968;28;20052;-86
2022/11/28 02:57:45;;;;;;;7.65;5.28;;;;;;;;;;5027990;28;20037;-85
2022/11/28 03:00:28;;;;;;;8.35;5.47;;;;;;;;;;5030078;28;20033;-86
2022/11/28 03:03:20;;;;;;;7.93;5.30;;;;;;;;;;5029237;28;20036;-86
2022/11/28 03:05:57;;;;;;;10.57;7.20;;;;;;;;;;5026061;28;20446;-85
2022/11/28 03:08:37;;;;;;;10.05;7.05;;;;;;;;;;5029114;28;20037;-85
2022/11/28 03:11:21;;;;;;;9.80;5.93;;;;;;;;;;5028872;28;20049;-85
2022/11/28 03:13:56;;;;;;;9.75;6.40;;;;;;;;;;5041895;28;20040;-85
2022/11/28 03:16:39;;;;;;;8.88;4.90;;;;;;;;;;5030054;28;20119;-85
2022/11/28 03:19:11;;;;;;;6.63;4.82;;;;;;;;;;5028685;28;20434;-85
2022/11/28 03:21:44;;;;;;;7.30;4.65;;;;;;;;;;5030333;28;20033;-86
2022/11/28 03:24:11;;;;;;;5.85;4.22;;;;;;;;;;5029799;28;20100;-85
2022/11/28 03:26:40;;;;;;;6.25;4.32;;;;;;;;;;5029984;28;20044;-85
2022/11/28 03:29:08;;;;;;;9.13;4.97;;;;;;;;;;5046077;28;20418;-85
2022/11/28 03:31:36;;;;;;;8.82;6.47;;;;;;;;;;5030671;28;20445;-85
2022/11/28 03:34:03;;;;;;;10.05;5.80;;;;;;;;;;5029035;28;20029;-85
2022/11/28 03:36:31;;;;;;;8.63;5.47;;;;;;;;;;5028769;28;20048;-85
2022/11/28 03:38:59;;;;;;;6.65;4.60;;;;;;;;;;5048218;28;20052;-85
2022/11/28 03:41:33;;;;;;;6.28;4.50;;;;;;;;;;5043832;28;20037;-86
2022/11/28 03:43:59;;;;;;;7.13;4.63;;;;;;;;;;5027788;28;20116;-86
2022/11/28 03:46:29;;;;;;;6.43;4.32;;;;;;;;;;5029543;28;20075;-85
2022/11/28 03:48:57;;;;;;;8.35;5.63;;;;;;;;;;5027604;28;20506;-85
2022/11/28 03:51:27;;;;;;;7.28;4.68;;;;;;;;;;5046944;28;20048;-85
2022/11/28 03:54:10;;;;;;;7.45;5.15;;;;;;;;;;5030919;28;20045;-85
2022/11/28 03:56:36;;;;;;;11.93;7.78;;;;;;;;;;5029416;28;20037;-85
2022/11/28 03:59:06;;;;;;;8.73;6.65;;;;;;;;;;5029102;28;20082;-85
2022/11/28 04:01:51;;;;;;;8.55;6.10;;;;;;;;;;5031325;28;20086;-85
2022/11/28 04:04:19;;;;;;;8.88;5.53;;;;;;;;;;5049601;28;20495;-85
2022/11/28 04:07:07;;;;;;;7.35;5.13;;;;;;;;;;5048823;28;20060;-85
2022/11/28 04:09:35;;;;;;;9.05;6.53;;;;;;;;;;5020813;28;20071;-85
2022/11/28 04:12:05;;;;;;;7.60;5.35;;;;;;;;;;5030735;28;20542;-85
2022/11/28 04:14:38;;;;;;;10.60;6.40;;;;;;;;;;5028988;28;20041;-85
2022/11/28 04:17:07;;;;;;;9.75;6.35;;;;;;;;;;5031866;28;20048;-85
2022/11/28 04:19:37;;;;;;;12.93;8.50;;;;;;;;;;5032850;28;20047;-85
2022/11/28 04:22:06;;;;;;;12.60;8.63;;;;;;;;;;5030348;28;20037;-85
2022/11/28 04:24:33;;;;;;;11.68;7.65;;;;;;;;;;5029619;28;20123;-85
2022/11/28 04:27:04;;;;;;;11.55;7.50;;;;;;;;;;5044116;28;20037;-85
2022/11/28 04:29:31;;;;;;;10.55;7.68;;;;;;;;;;5029399;28;20041;-86
2022/11/28 04:31:58;;;;;;;9.40;6.80;;;;;;;;;;5031854;28;20037;-85
2022/11/28 04:34:24;;;;;;;9.40;6.65;;;;;;;;;;5031659;28;20025;-86
2022/11/28 04:36:50;;;;;;;10.88;7.38;;;;;;;;;;5032218;28;20040;-85
2022/11/28 04:39:17;;;;;;;9.15;6.10;;;;;;;;;;5050089;28;20064;-85
2022/11/28 04:41:47;;;;;;;8.05;5.82;;;;;;;;;;5025349;28;20029;-85
2022/11/28 04:44:15;;;;;;;11.68;7.82;;;;;;;;;;5046022;28;20547;-85
2022/11/28 04:46:43;;;;;;;9.55;6.63;;;;;;;;;;5030898;28;20507;-85
2022/11/28 04:49:10;;;;;;;11.98;7.45;;;;;;;;;;5031797;28;20045;-85
2022/11/28 04:51:39;;;;;;;11.75;7.38;;;;;;;;;;5030229;28;20037;-85
2022/11/28 04:54:04;;;;;;;9.88;6.47;;;;;;;;;;5032330;28;20505;-86
2022/11/28 04:56:33;;;;;;;9.15;6.97;;;;;;;;;;5031589;28;20118;-85
2022/11/28 04:58:59;;;;;;;10.18;7.28;;;;;;;;;;5024902;28;20033;-85
2022/11/28 05:01:25;;;;;;;11.73;7.47;;;;;;;;;;5033114;28;20063;-85
2022/11/28 05:03:51;;;;;;;10.15;6.47;;;;;;;;;;5033124;28;20118;-86
2022/11/28 05:06:23;;;;;;;8.45;6.13;;;;;;;;;;5054099;28;20037;-85
2022/11/28 05:08:48;;;;;;;9.60;6.72;;;;;;;;;;5037708;28;20273;-85
2022/11/28 05:11:13;;;;;;;10.30;7.43;;;;;;;;;;5037837;28;20037;-85
2022/11/28 05:13:38;;;;;;;10.10;6.43;;;;;;;;;;5053602;28;20064;-85
2022/11/28 05:16:04;;;;;;;8.37;5.90;;;;;;;;;;5035957;28;20040;-86
2022/11/28 05:18:29;;;;;;;6.38;4.63;;;;;;;;;;5053988;28;20435;-85
2022/11/28 05:20:57;;;;;;;9.47;6.53;;;;;;;;;;5036172;28;20037;-86
2022/11/28 05:23:22;;;;;;;9.40;6.30;;;;;;;;;;5035093;28;20652;-85
2022/11/28 05:25:47;;;;;;;9.07;5.80;;;;;;;;;;5034746;28;20041;-85
2022/11/28 05:28:12;;;;;;;8.67;6.07;;;;;;;;;;5040369;28;20040;-85
2022/11/28 05:30:37;;;;;;;9.00;6.23;;;;;;;;;;5032618;28;20441;-86
2022/11/28 05:33:03;;;;;;;8.23;6.17;;;;;;;;;;5038445;28;20045;-85
2022/11/28 05:35:28;;;;;;;10.13;6.53;;;;;;;;;;5037472;28;20280;-85
2022/11/28 05:37:53;;;;;;;9.32;6.05;;;;;;;;;;5054489;28;20032;-85
2022/11/28 05:40:18;;;;;;;11.43;7.20;;;;;;;;;;5053864;28;20049;-85
2022/11/28 05:42:43;;;;;;;9.20;6.60;;;;;;;;;;5047117;28;20037;-85
2022/11/28 05:45:09;;;;;;;7.83;5.83;;;;;;;;;;5037066;28;20295;-85
2022/11/28 05:47:34;;;;;;;9.10;5.72;;;;;;;;;;5037120;28;20116;-85
2022/11/28 05:49:59;;;;;;;7.73;5.30;;;;;;;;;;5036849;28;20241;-85
2022/11/28 05:52:28;;;;;;;8.20;5.83;;;;;;;;;;5049797;28;20858;-85
2022/11/28 05:54:53;;;;;;;8.70;6.22;;;;;;;;;;5049527;28;20063;-85
2022/11/28 05:57:18;;;;;;;8.63;5.80;;;;;;;;;;5036144;28;20053;-85
2022/11/28 05:59:43;;;;;;;11.67;8.07;;;;;;;;;;5037349;28;20025;-85
2022/11/28 06:02:09;;;;;;;11.95;7.60;;;;;;;;;;5035822;28;20047;-85
2022/11/28 06:04:34;;;;;;;11.17;7.13;;;;;;;;;;5050283;28;20100;-86
2022/11/28 06:07:00;;;;;;;9.80;6.47;;;;;;;;;;5043537;28;20093;-85
2022/11/28 06:09:25;;;;;;;9.45;6.70;;;;;;;;;;5034817;28;20123;-85
2022/11/28 06:11:50;;;;;;;10.77;7.45;;;;;;;;;;5031016;28;20037;-85
2022/11/28 06:14:15;;;;;;;10.33;7.20;;;;;;;;;;5051481;28;20040;-85
2022/11/28 06:16:42;;;;;;;7.97;5.90;;;;;;;;;;5031364;28;20300;-85
2022/11/28 06:19:10;;;;;;;8.27;6.07;;;;;;;;;;5031750;28;20378;-86
2022/11/28 06:21:35;;;;;;;7.53;5.50;;;;;;;;;;5041848;28;20033;-85
2022/11/28 06:24:00;;;;;;;8.07;5.32;;;;;;;;;;5030215;28;20048;-85
2022/11/28 06:26:26;;;;;;;8.60;6.33;;;;;;;;;;5029297;28;20044;-85
2022/11/28 06:28:53;;;;;;;8.65;6.30;;;;;;;;;;5029006;28;20661;-85
2022/11/28 06:31:19;;;;;;;7.28;5.57;;;;;;;;;;5031082;28;20045;-85
2022/11/28 06:33:45;;;;;;;8.25;5.50;;;;;;;;;;5048155;28;20036;-85
2022/11/28 06:36:11;;;;;;;7.30;5.10;;;;;;;;;;5048298;28;20033;-85
2022/11/28 06:38:36;;;;;;;6.00;4.40;;;;;;;;;;5032987;28;20037;-87
2022/11/28 06:41:03;;;;;;;8.15;5.78;;;;;;;;;;5044126;28;20048;-88
2022/11/28 06:43:29;;;;;;;7.53;5.30;;;;;;;;;;5028407;28;20048;-88
2022/11/28 06:45:54;;;;;;;9.13;6.38;;;;;;;;;;5027359;28;20080;-88
2022/11/28 06:48:20;;;;;;;8.70;5.40;;;;;;;;;;5027498;28;20044;-88
2022/11/28 06:50:45;;;;;;;7.15;5.20;;;;;;;;;;5029605;28;20673;-88
2022/11/28 06:53:10;;;;;;;7.97;5.33;;;;;;;;;;5047055;28;20040;-87
2022/11/28 06:55:36;;;;;;;7.10;4.63;;;;;;;;;;5029985;28;20686;-88
2022/11/28 06:58:01;;;;;;;5.93;4.15;;;;;;;;;;5029761;28;20288;-85
2022/11/28 07:00:26;;;;;;;5.47;3.85;;;;;;;;;;5033477;28;20044;-85
2022/11/28 07:02:52;;;;;;;5.70;3.63;;;;;;;;;;5048768;28;20099;-85
2022/11/28 07:05:18;;;;;;;5.07;3.33;;;;;;;;;;5032841;28;20295;-85
2022/11/28 07:07:43;;;;;;;4.45;3.45;;;;;;;;;;5051255;28;20041;-85
2022/11/28 07:10:08;;;;;;;6.33;4.10;;;;;;;;;;5035019;28;20682;-85
2022/11/28 07:12:34;;;;;;;5.65;3.92;;;;;;;;;;5035037;28;20044;-85
2022/11/28 07:14:59;;;;;;;7.03;5.40;;;;;;;;;;5035116;28;20095;-85
2022/11/28 07:17:24;;;;;;;6.38;4.63;;;;;;;;;;5021691;28;20057;-86
2022/11/28 07:19:49;;;;;;;6.57;4.70;;;;;;;;;;5035619;28;20159;-85
2022/11/28 07:22:14;;;;;;;7.53;4.60;;;;;;;;;;5034196;28;20120;-85
2022/11/28 07:24:40;;;;;;;6.70;4.47;;;;;;;;;;5035504;28;20037;-86
2022/11/28 07:27:05;;;;;;;5.43;4.23;;;;;;;;;;5035818;28;20041;-85
2022/11/28 07:29:35;;;;;;;6.37;4.03;;;;;;;;;;5035189;28;20291;-85
2022/11/28 07:32:01;;;;;;;5.28;3.85;;;;;;;;;;5035631;28;20100;-86
2022/11/28 07:34:26;;;;;;;6.00;4.00;;;;;;;;;;5053167;28;20065;-85
2022/11/28 07:36:51;;;;;;;6.00;4.27;;;;;;;;;;5053894;28;20040;-85
2022/11/28 07:39:16;;;;;;;5.85;3.85;;;;;;;;;;5053350;28;20276;-85
2022/11/28 07:41:42;;;;;;;13.07;6.83;;;;;;;;;;5029356;28;20044;-86
2022/11/28 07:44:08;;;;;;;15.77;6.78;;;;;;;;;;5054887;28;20128;-85
2022/11/28 07:46:33;;;;;;;20.15;7.82;;;;;;;;;;5036566;28;20044;-85
2022/11/28 07:48:59;;;;;;;18.48;8.13;;;;;;;;;;5051447;28;20033;-85
2022/11/28 07:51:25;;;;;;;23.55;10.23;;;;;;;;;;5032881;28;20040;-86
2022/11/28 07:53:51;;;;;;;22.98;9.95;;;;;;;;;;5035294;28;20037;-86
2022/11/28 07:56:18;;;;;;;21.10;9.18;;;;;;;;;;5036213;28;20132;-86
2022/11/28 07:58:44;;;;;;;17.58;8.45;;;;;;;;;;5053495;28;20169;-85
2022/11/28 08:01:09;;;;;;;21.83;9.90;;;;;;;;;;5036270;28;20124;-86
2022/11/28 08:03:35;;;;;;;26.88;12.85;;;;;;;;;;5036367;28;20602;-85
2022/11/28 08:06:00;;;;;;;33.63;13.90;;;;;;;;;;5032408;28;20391;-85
2022/11/28 08:08:25;;;;;;;26.83;12.57;;;;;;;;;;5032811;28;20255;-86
2022/11/28 08:10:55;;;;;;;22.67;10.47;;;;;;;;;;5031602;28;20044;-85
2022/11/28 08:13:20;;;;;;;19.05;9.73;;;;;;;;;;5031538;28;20267;-86
2022/11/28 08:15:46;;;;;;;19.70;10.45;;;;;;;;;;5032595;28;20091;-85
2022/11/28 08:18:11;;;;;;;19.67;9.20;;;;;;;;;;5031175;28;20117;-86
2022/11/28 08:20:38;;;;;;;13.25;7.75;;;;;;;;;;5016351;28;20132;-86
2022/11/28 08:23:03;;;;;;;11.43;6.53;;;;;;;;;;5033128;28;20048;-86
2022/11/28 08:25:28;;;;;;;12.25;6.80;;;;;;;;;;5035257;28;20045;-86
2022/11/28 08:27:53;;;;;;;9.73;6.17;;;;;;;;;;5051394;28;20037;-86
2022/11/28 08:30:19;;;;;;;9.27;5.65;;;;;;;;;;5032211;28;20053;-86
2022/11/28 08:32:44;;;;;;;10.73;5.93;;;;;;;;;;5049880;28;20041;-86
2022/11/28 08:35:09;;;;;;;11.60;7.47;;;;;;;;;;5032653;28;20283;-85
2022/11/28 08:37:34;;;;;;;10.57;6.80;;;;;;;;;;5031726;28;20291;-85
2022/11/28 08:39:59;;;;;;;13.37;7.40;;;;;;;;;;5033431;28;20048;-86
2022/11/28 08:42:26;;;;;;;10.93;7.45;;;;;;;;;;5031474;28;20094;-85
2022/11/28 08:44:51;;;;;;;13.13;8.15;;;;;;;;;;5037508;28;20513;-85
2022/11/28 08:47:16;;;;;;;15.13;9.10;;;;;;;;;;5049104;28;20067;-86
2022/11/28 08:49:42;;;;;;;15.77;9.30;;;;;;;;;;5035101;28;20041;-86
2022/11/28 08:52:07;;;;;;;16.13;9.23;;;;;;;;;;5036845;28;20375;-87
2022/11/28 08:54:32;;;;;;;15.73;9.77;;;;;;;;;;5055479;28;20041;-86
2022/11/28 08:56:57;;;;;;;12.98;8.65;;;;;;;;;;5055723;28;20292;-86
2022/11/28 08:59:23;;;;;;;16.05;10.18;;;;;;;;;;5020855;28;20458;-86
2022/11/28 09:01:48;;;;;;;16.45;10.20;;;;;;;;;;5020918;28;20103;-86
2022/11/28 09:04:13;;;;;;;17.03;10.03;;;;;;;;;;5038313;28;20033;-86
2022/11/28 09:06:39;;;;;;;18.95;10.65;;;;;;;;;;5039428;28;20628;-86
2022/11/28 09:09:04;;;;;;;18.02;10.63;;;;;;;;;;5057229;28;20033;-86
2022/11/28 09:11:30;;;;;;;16.55;10.63;;;;;;;;;;5036887;28;20041;-87
2022/11/28 09:13:55;;;;;;;16.10;10.65;;;;;;;;;;5035610;28;20040;-88
2022/11/28 09:16:20;;;;;;;16.30;9.98;;;;;;;;;;5054402;28;20033;-88
2022/11/28 09:18:45;;;;;;;15.77;10.07;;;;;;;;;;5035082;28;20027;-86
2022/11/28 09:21:12;;;;;;;12.70;7.60;;;;;;;;;;5020519;28;20813;-87
2022/11/28 09:23:37;;;;;;;11.63;7.93;;;;;;;;;;5014142;28;20407;-88
2022/11/28 09:26:09;;;;;;;11.95;7.85;;;;;;;;;;5026475;28;20106;-88
2022/11/28 09:28:34;;;;;;;10.40;7.05;;;;;;;;;;5051957;28;20074;-87
2022/11/28 09:31:00;;;;;;;10.17;6.70;;;;;;;;;;5033491;28;20464;-86
2022/11/28 09:33:26;;;;;;;9.45;6.43;;;;;;;;;;5033434;28;20045;-86
2022/11/28 09:35:51;;;;;;;10.13;6.13;;;;;;;;;;5034392;28;20552;-86
2022/11/28 09:38:16;;;;;;;8.73;5.93;;;;;;;;;;5033345;28;20605;-87
2022/11/28 09:40:43;;;;;;;10.53;6.67;;;;;;;;;;5022779;28;20029;-88
2022/11/28 09:43:31;;;;;;;8.02;5.68;;;;;;;;;;5034736;28;20275;-88
2022/11/28 09:45:58;;;;;;;8.68;6.20;;;;;;;;;;5009049;28;20096;-86
2022/11/28 09:48:38;;;;;;;9.77;6.47;;;;;;;;;;5033579;28;20045;-86
2022/11/28 09:51:09;;;;;;;9.43;6.18;;;;;;;;;;5046744;28;20427;-87
2022/11/28 09:53:55;;;;;;;7.57;5.57;;;;;;;;;;5027851;28;20044;-88
2022/11/28 09:56:21;;;;;;;9.15;5.93;;;;;;;;;;5032608;28;20033;-87
2022/11/28 09:58:49;;;;;;;9.48;5.63;;;;;;;;;;5035061;28;20052;-86
2022/11/28 10:01:14;;;;;;;9.68;6.03;;;;;;;;;;5035188;28;20116;-86
2022/11/28 10:03:40;;;;;;;7.57;5.53;;;;;;;;;;5035085;28;20115;-86
2022/11/28 10:06:23;;;;;;;8.40;5.93;;;;;;;;;;5035438;28;20671;-88
2022/11/28 10:08:49;;;;;;;9.38;6.38;;;;;;;;;;5039467;28;20298;-90
2022/11/28 10:11:32;;;;;;;7.27;5.40;;;;;;;;;;5034526;28;20052;-88
2022/11/28 10:13:57;;;;;;;9.00;5.93;;;;;;;;;;5033033;28;20033;-87
2022/11/28 10:16:31;;;;;;;7.93;5.53;;;;;;;;;;5032945;28;20040;-87
2022/11/28 10:19:02;;;;;;;11.18;6.95;;;;;;;;;;5033253;28;20264;-87
2022/11/28 10:21:46;;;;;;;10.07;6.18;;;;;;;;;;5033603;28;20514;-87
2022/11/28 10:24:18;;;;;;;9.70;5.85;;;;;;;;;;5032623;28;20060;-87
2022/11/28 10:26:47;;;;;;;7.88;5.72;;;;;;;;;;5033326;28;20036;-86
2022/11/28 10:29:19;;;;;;;9.13;5.70;;;;;;;;;;5034855;28;20104;-87
2022/11/28 10:31:46;;;;;;;10.40;5.93;;;;;;;;;;5034578;28;20111;-86
2022/11/28 10:34:18;;;;;;;8.70;5.43;;;;;;;;;;5033057;28;20037;-87
2022/11/28 10:36:55;;;;;;;9.38;5.32;;;;;;;;;;5033186;28;20037;-89
2022/11/28 10:39:21;;;;;;;8.38;5.75;;;;;;;;;;5014816;28;20042;-87
2022/11/28 10:42:13;;;;;;;10.23;6.15;;;;;;;;;;5060218;28;20044;-87
2022/11/28 10:44:47;;;;;;;9.85;6.05;;;;;;;;;;5033011;28;20361;-87
2022/11/28 10:47:23;;;;;;;8.57;6.00;;;;;;;;;;5028302;28;20041;-86
2022/11/28 10:49:55;;;;;;;9.52;6.25;;;;;;;;;;5033048;28;20033;-86
2022/11/28 10:52:34;;;;;;;10.30;6.50;;;;;;;;;;5032017;28;20037;-86
2022/11/28 10:55:04;;;;;;;11.20;7.20;;;;;;;;;;5013089;28;20057;-89
2022/11/28 10:57:50;;;;;;;12.57;8.02;;;;;;;;;;5032172;28;20565;-88
2022/11/28 11:00:17;;;;;;;12.52;7.45;;;;;;;;;;5023100;28;20091;-89
2022/11/28 11:02:42;;;;;;;12.32;7.95;;;;;;;;;;5030098;28;20029;-87
2022/11/28 11:05:11;;;;;;;11.15;7.70;;;;;;;;;;5031337;28;20449;-88
2022/11/28 11:07:36;;;;;;;11.38;7.68;;;;;;;;;;5042671;28;20121;-87
2022/11/28 11:10:14;;;;;;;10.00;6.57;;;;;;;;;;5011881;28;20133;-88
2022/11/28 11:12:39;;;;;;;7.97;5.93;;;;;;;;;;5030325;28;20056;-87
2022/11/28 11:15:37;;;;;;;9.65;6.18;;;;;;;;;;5049396;28;20037;-87
2022/11/28 11:18:04;;;;;;;10.32;6.40;;;;;;;;;;4992550;28;20052;-89
2022/11/28 11:20:38;;;;;;;9.43;6.45;;;;;;;;;;5030560;28;20033;-86
2022/11/28 11:23:12;;;;;;;8.80;6.40;;;;;;;;;;5031441;28;20494;-88
2022/11/28 11:25:44;;;;;;;10.52;5.93;;;;;;;;;;5049579;28;20092;-87
2022/11/28 11:28:24;;;;;;;8.05;5.75;;;;;;;;;;5030060;28;20073;-88
2022/11/28 11:30:57;;;;;;;8.25;5.82;;;;;;;;;;5031195;28;20036;-88
2022/11/28 11:33:22;;;;;;;9.80;5.70;;;;;;;;;;5047875;28;20380;-88
2022/11/28 11:35:48;;;;;;;7.75;5.63;;;;;;;;;;5048619;28;20283;-86
2022/11/28 11:38:19;;;;;;;8.57;5.32;;;;;;;;;;5029734;28;20509;-87
2022/11/28 11:40:45;;;;;;;8.00;5.30;;;;;;;;;;5028606;28;20120;-88
2022/11/28 11:43:42;;;;;;;8.25;5.90;;;;;;;;;;5024682;28;20442;-88
2022/11/28 11:46:09;;;;;;;7.93;5.65;;;;;;;;;;4996067;28;20045;-87
2022/11/28 11:48:44;;;;;;;9.32;5.68;;;;;;;;;;5030607;28;20071;-88
2022/11/28 11:51:20;;;;;;;7.68;5.00;;;;;;;;;;5048626;28;20037;-88
2022/11/28 11:53:46;;;;;;;9.57;5.43;;;;;;;;;;5031242;28;20490;-89
2022/11/28 11:56:11;;;;;;;8.90;5.10;;;;;;;;;;5030185;28;20047;-86
2022/11/28 11:58:43;;;;;;;8.05;4.97;;;;;;;;;;5018955;28;20283;-87
2022/11/28 12:01:10;;;;;;;9.25;5.13;;;;;;;;;;5015091;28;20110;-87
2022/11/28 12:03:57;;;;;;;8.43;4.75;;;;;;;;;;5045034;28;20503;-86
2022/11/28 12:06:26;;;;;;;7.88;5.38;;;;;;;;;;5031091;28;20449;-87
2022/11/28 12:08:53;;;;;;;7.65;5.72;;;;;;;;;;5029673;28;20068;-86
2022/11/28 12:11:30;;;;;;;9.80;5.65;;;;;;;;;;5049193;28;20056;-86
2022/11/28 12:13:58;;;;;;;8.95;5.15;;;;;;;;;;5030385;28;20048;-86
2022/11/28 12:16:45;;;;;;;9.70;6.03;;;;;;;;;;5047402;28;20028;-86
2022/11/28 12:19:16;;;;;;;8.73;6.07;;;;;;;;;;5029553;28;20037;-86
2022/11/28 12:22:06;;;;;;;8.80;5.95;;;;;;;;;;5030249;28;20379;-87
2022/11/28 12:24:34;;;;;;;9.25;5.38;;;;;;;;;;5048816;28;20443;-86
2022/11/28 12:27:15;;;;;;;9.05;5.85;;;;;;;;;;5035858;28;20034;-86
2022/11/28 12:29:56;;;;;;;8.75;5.90;;;;;;;;;;5029262;28;20446;-86
2022/11/28 12:32:26;;;;;;;7.82;5.38;;;;;;;;;;5024488;28;20463;-86
2022/11/28 12:35:07;;;;;;;7.78;4.75;;;;;;;;;;5047536;28;20287;-86
2022/11/28 12:37:32;;;;;;;;;;;;;;;;;;5043921;28;20044;-86
2022/11/28 12:40:15;;;;;;;7.32;5.10;;;;;;;;;;5017981;28;19952;-87
2022/11/28 12:42:53;;;;;;;7.53;4.70;;;;;;;;;;5012744;28;20034;-86
2022/11/28 12:45:19;;;;;;;7.28;5.57;;;;;;;;;;5038428;28;20296;-86
2022/11/28 12:47:54;;;;;;;7.03;4.82;;;;;;;;;;5027875;28;20427;-87
2022/11/28 12:50:22;;;;;;;6.30;4.32;;;;;;;;;;5009726;28;20080;-87
2022/11/28 12:52:50;;;;;;;6.82;4.25;;;;;;;;;;5009873;28;20530;-87
2022/11/28 12:55:15;;;;;;;6.72;4.03;;;;;;;;;;5028574;28;20045;-87
2022/11/28 12:57:53;;;;;;;5.00;3.90;;;;;;;;;;5028002;28;20402;-86
2022/11/28 13:00:20;;;;;;;7.07;4.22;;;;;;;;;;5018752;28;20284;-87
2022/11/28 13:02:53;;;;;;;7.32;5.13;;;;;;;;;;5029424;28;20025;-86
2022/11/28 13:05:26;;;;;;;8.85;5.05;;;;;;;;;;5029580;28;20037;-86
2022/11/28 13:08:10;;;;;;;6.50;5.00;;;;;;;;;;5046681;28;20704;-86
2022/11/28 13:10:42;;;;;;;6.72;4.53;;;;;;;;;;5046256;28;20037;-86
2022/11/28 13:13:08;;;;;;;4.75;3.67;;;;;;;;;;5028728;28;20087;-86
2022/11/28 13:15:39;;;;;;;5.93;4.10;;;;;;;;;;5028917;28;20511;-87
2022/11/28 13:18:13;;;;;;;6.50;4.18;;;;;;;;;;5046860;28;20045;-87
2022/11/28 13:20:44;;;;;;;7.65;4.80;;;;;;;;;;5027532;28;20086;-86
2022/11/28 13:23:18;;;;;;;6.35;4.22;;;;;;;;;;5022567;28;20151;-87
2022/11/28 13:25:44;;;;;;;5.97;4.13;;;;;;;;;;5025742;28;20037;-86
2022/11/28 13:28:17;;;;;;;5.83;3.60;;;;;;;;;;5032983;28;20071;-87
2022/11/28 13:30:45;;;;;;;6.05;3.50;;;;;;;;;;5033021;28;20520;-87
2022/11/28 13:33:10;;;;;;;5.40;4.10;;;;;;;;;;5051863;28;20041;-87
2022/11/28 13:35:36;;;;;;;6.35;4.10;;;;;;;;;;5052743;28;20087;-87
2022/11/28 13:38:05;;;;;;;5.47;3.65;;;;;;;;;;5035555;28;20047;-87
2022/11/28 13:40:38;;;;;;;5.97;3.42;;;;;;;;;;5034033;28;20114;-86
2022/11/28 13:43:22;;;;;;;5.20;3.65;;;;;;;;;;5036364;28;20037;-85
2022/11/28 13:45:48;;;;;;;4.80;3.13;;;;;;;;;;5051443;28;20517;-85
2022/11/28 13:48:32;;;;;;;5.00;3.08;;;;;;;;;;5052755;28;20033;-85
2022/11/28 13:50:59;;;;;;;3.50;2.55;;;;;;;;;;5034609;28;20036;-85
2022/11/28 13:53:24;;;;;;;4.60;2.60;;;;;;;;;;5034395;28;20043;-85
2022/11/28 13:55:49;;;;;;;4.45;2.80;;;;;;;;;;5034039;28;20493;-85
2022/11/28 13:58:25;;;;;;;5.33;3.50;;;;;;;;;;5052052;28;20029;-85
2022/11/28 14:01:10;;;;;;;4.32;3.05;;;;;;;;;;5052258;28;20575;-85
2022/11/28 14:03:43;;;;;;;4.65;3.03;;;;;;;;;;5053122;28;20044;-85
2022/11/28 14:06:09;;;;;;;4.75;2.97;;;;;;;;;;5033281;28;20312;-85
2022/11/28 14:08:37;;;;;;;4.93;3.40;;;;;;;;;;5032506;28;20040;-85
2022/11/28 14:11:21;;;;;;;6.00;3.67;;;;;;;;;;5031514;28;20513;-85
2022/11/28 14:14:01;;;;;;;5.85;3.83;;;;;;;;;;5029456;28;20025;-86
2022/11/28 14:16:35;;;;;;;6.60;4.38;;;;;;;;;;5031580;28;20045;-86
2022/11/28 14:19:00;;;;;;;7.07;4.47;;;;;;;;;;5044717;28;20036;-88
2022/11/28 14:21:32;;;;;;;7.20;4.60;;;;;;;;;;5034934;28;20033;-86
2022/11/28 14:24:03;;;;;;;5.55;3.90;;;;;;;;;;5033223;28;20443;-86
2022/11/28 14:26:38;;;;;;;5.05;3.65;;;;;;;8.73;nan;99814.16;5028146;28;20033;-85
2022/11/28 14:29:05;;;;;;;7.00;4.53;;;;;;;;;;5032786;28;20061;-86
2022/11/28 14:31:38;;;;;;;6.35;4.25;;;;;;;8.64;nan;99985.41;5047062;28;20294;-86
2022/11/28 14:34:05;;;;;;;6.18;3.78;;;;;;;;;;5052478;28;20036;-86
2022/11/28 14:36:35;;;;;;;6.60;4.40;;;;;;;;;;5031389;28;20075;-89
2022/11/28 14:39:15;;;;;;;7.85;4.35;;;;;;;;;;5040143;28;20498;-85
2022/11/28 14:41:59;;;;;;;5.65;3.65;;;;;;;;;;5039513;28;20055;-86
2022/11/28 14:44:44;;;;;;;5.05;3.40;;;;;;;;;;5032198;28;20049;-86
2022/11/28 14:47:30;;;;;;;4.30;2.90;;;;;;;;;;5037987;28;20399;-87
2022/11/28 14:50:05;;;;;;;8.48;3.80;;;;;;;;;;5026911;28;20087;-86
2022/11/28 14:52:34;;;;;;;5.10;3.50;;;;;;;;;;5026111;28;20037;-86